sensor_id;sensor_type;location;lat;lon;timestamp;pressure;altitude;pressure_sealevel;temperature;humidity
59435;BME280;45241;49.768;8.636;2023-08-20T09:02:17;100663.78;;;28.78;94.24
59435;BME280;45241;49.768;8.636;2023-08-20T09:04:42;100664.44;;;28.88;93.92
59435;BME280;45241;49.768;8.636;2023-08-20T09:07:11;100664.38;;;29.07;94.81
59435;BME280;45241;49.768;8.636;2023-08-20T09:09:41;100664.28;;;29.12;91.30
59435;BME280;45241;49.768;8.636;2023-08-20T09:12:14;100665.53;;;29.34;92.51
59435;BME280;45241;49.768;8.636;2023-08-20T09:14:40;100673.75;;;29.52;91.74
59435;BME280;45241;49.768;8.636;2023-08-20T09:17:08;100670.47;;;29.50;89.91
59435;BME280;45241;49.768;8.636;2023-08-20T09:19:37;100673.13;;;29.42;89.48
59435;BME280;45241;49.768;8.636;2023-08-20T09:22:03;100674.97;;;29.46;89.77
59435;BME280;45241;49.768;8.636;2023-08-20T09:24:51;100666.06;;;29.77;93.74
59435;BME280;45241;49.768;8.636;2023-08-20T09:27:16;100659.59;;;29.81;90.74
59435;BME280;45241;49.768;8.636;2023-08-20T09:34:41;100664.53;;;29.71;86.30
59435;BME280;45241;49.768;8.636;2023-08-20T09:37:08;100669.00;;;29.94;89.12
59435;BME280;45241;49.768;8.636;2023-08-20T09:39:34;100669.66;;;29.77;84.50
59435;BME280;45241;49.768;8.636;2023-08-20T09:41:59;100658.63;;;30.13;85.77
59435;BME280;45241;49.768;8.636;2023-08-20T09:44:27;100666.16;;;30.35;85.89
59435;BME280;45241;49.768;8.636;2023-08-20T09:46:57;100661.38;;;30.27;85.12
59435;BME280;45241;49.768;8.636;2023-08-20T09:49:29;100657.97;;;30.30;82.69
59435;BME280;45241;49.768;8.636;2023-08-20T09:51:56;100656.09;;;30.39;82.95
59435;BME280;45241;49.768;8.636;2023-08-20T09:54:28;100653.28;;;30.53;83.47
59435;BME280;45241;49.768;8.636;2023-08-20T09:57:01;100666.94;;;30.72;84.23
59435;BME280;45241;49.768;8.636;2023-08-20T09:59:27;100660.78;;;30.75;83.02
59435;BME280;45241;49.768;8.636;2023-08-20T10:01:54;100650.34;;;30.72;81.02
59435;BME280;45241;49.768;8.636;2023-08-20T10:04:20;100663.53;;;30.75;82.09
59435;BME280;45241;49.768;8.636;2023-08-20T10:06:46;100655.63;;;30.82;80.42
59435;BME280;45241;49.768;8.636;2023-08-20T10:09:13;100652.72;;;30.87;76.64
59435;BME280;45241;49.768;8.636;2023-08-20T10:11:39;100657.34;;;31.00;74.55
59435;BME280;45241;49.768;8.636;2023-08-20T10:14:05;100651.09;;;31.17;74.72
59435;BME280;45241;49.768;8.636;2023-08-20T10:16:33;100652.53;;;31.15;73.96
59435;BME280;45241;49.768;8.636;2023-08-20T10:19:02;100650.72;;;31.10;70.72
59435;BME280;45241;49.768;8.636;2023-08-20T10:21:28;100658.69;;;31.34;73.75
59435;BME280;45241;49.768;8.636;2023-08-20T10:23:53;100651.50;;;31.33;76.05
59435;BME280;45241;49.768;8.636;2023-08-20T10:26:20;100649.06;;;31.40;74.94
59435;BME280;45241;49.768;8.636;2023-08-20T10:28:47;100659.44;;;31.26;71.84
59435;BME280;45241;49.768;8.636;2023-08-20T10:31:12;100653.47;;;31.41;72.32
59435;BME280;45241;49.768;8.636;2023-08-20T10:33:48;100651.19;;;31.43;68.68
59435;BME280;45241;49.768;8.636;2023-08-20T10:41:25;100652.31;;;31.73;72.56
59435;BME280;45241;49.768;8.636;2023-08-20T10:43:51;100648.91;;;31.85;71.40
59435;BME280;45241;49.768;8.636;2023-08-20T10:46:22;100643.38;;;31.85;67.71
59435;BME280;45241;49.768;8.636;2023-08-20T10:48:58;100648.09;;;31.84;67.97
59435;BME280;45241;49.768;8.636;2023-08-20T10:54:09;100652.34;;;31.90;70.77
59435;BME280;45241;49.768;8.636;2023-08-20T10:56:48;100647.28;;;31.92;67.39
59435;BME280;45241;49.768;8.636;2023-08-20T10:59:26;100641.91;;;32.05;71.04
59435;BME280;45241;49.768;8.636;2023-08-20T11:01:57;100641.59;;;32.15;68.40
59435;BME280;45241;49.768;8.636;2023-08-20T11:04:25;100642.41;;;32.24;69.61
59435;BME280;45241;49.768;8.636;2023-08-20T11:06:54;100637.81;;;32.19;68.07
59435;BME280;45241;49.768;8.636;2023-08-20T11:09:21;100636.72;;;32.29;67.56
59435;BME280;45241;49.768;8.636;2023-08-20T12:22:23;100606.38;;;34.36;57.54
59435;BME280;45241;49.768;8.636;2023-08-20T12:24:49;100606.09;;;34.49;56.39
59435;BME280;45241;49.768;8.636;2023-08-20T12:27:17;100604.16;;;34.62;57.51
59435;BME280;45241;49.768;8.636;2023-08-20T12:29:42;100598.78;;;34.45;57.61
59435;BME280;45241;49.768;8.636;2023-08-20T12:32:07;100608.97;;;34.20;53.07
59435;BME280;45241;49.768;8.636;2023-08-20T12:34:33;100591.59;;;34.56;52.07
59435;BME280;45241;49.768;8.636;2023-08-20T12:36:58;100599.41;;;34.63;50.95
59435;BME280;45241;49.768;8.636;2023-08-20T12:39:23;100598.22;;;34.51;52.85
59435;BME280;45241;49.768;8.636;2023-08-20T12:41:49;100593.53;;;34.76;53.23
59435;BME280;45241;49.768;8.636;2023-08-20T12:44:14;100594.72;;;34.88;54.41
59435;BME280;45241;49.768;8.636;2023-08-20T12:46:39;100597.59;;;34.91;51.42
59435;BME280;45241;49.768;8.636;2023-08-20T12:49:05;100594.63;;;35.08;53.37
59435;BME280;45241;49.768;8.636;2023-08-20T12:51:30;100595.56;;;35.00;54.61
59435;BME280;45241;49.768;8.636;2023-08-20T12:53:56;100581.56;;;34.64;51.99
59435;BME280;45241;49.768;8.636;2023-08-20T12:56:21;100590.69;;;34.97;52.68
59435;BME280;45241;49.768;8.636;2023-08-20T12:58:46;100587.44;;;35.44;57.65
59435;BME280;45241;49.768;8.636;2023-08-20T13:01:12;100582.88;;;35.76;58.48
59435;BME280;45241;49.768;8.636;2023-08-20T13:03:37;100582.78;;;36.13;57.59
59435;BME280;45241;49.768;8.636;2023-08-20T13:06:03;100578.22;;;36.20;56.78
59435;BME280;45241;49.768;8.636;2023-08-20T13:08:29;100581.91;;;35.96;56.81
59435;BME280;45241;49.768;8.636;2023-08-20T13:10:56;100572.38;;;35.97;57.20
59435;BME280;45241;49.768;8.636;2023-08-20T13:45:09;100563.59;;;37.14;49.84
59435;BME280;45241;49.768;8.636;2023-08-20T13:47:35;100557.94;;;36.95;52.25
59435;BME280;45241;49.768;8.636;2023-08-20T13:50:00;100559.63;;;37.31;50.33
59435;BME280;45241;49.768;8.636;2023-08-20T13:52:25;100553.50;;;37.80;50.28
59435;BME280;45241;49.768;8.636;2023-08-20T13:54:51;100561.63;;;37.85;50.55
59435;BME280;45241;49.768;8.636;2023-08-20T13:57:16;100560.09;;;38.26;48.82
59435;BME280;45241;49.768;8.636;2023-08-20T13:59:41;100552.63;;;38.53;47.60
59435;BME280;45241;49.768;8.636;2023-08-20T14:02:07;100557.25;;;39.94;49.79
59435;BME280;45241;49.768;8.636;2023-08-20T14:04:32;100549.69;;;39.98;46.08
59435;BME280;45241;49.768;8.636;2023-08-20T14:06:58;100547.56;;;39.61;43.64
59435;BME280;45241;49.768;8.636;2023-08-20T14:09:23;100556.69;;;37.79;45.63
59435;BME280;45241;49.768;8.636;2023-08-20T14:11:48;100545.34;;;38.49;45.49
59435;BME280;45241;49.768;8.636;2023-08-20T14:14:14;100546.84;;;39.94;45.17
59435;BME280;45241;49.768;8.636;2023-08-20T14:16:39;100551.94;;;39.85;45.37
59435;BME280;45241;49.768;8.636;2023-08-20T14:19:05;100545.41;;;39.51;48.32
59435;BME280;45241;49.768;8.636;2023-08-20T14:21:30;100554.06;;;38.05;47.15
59435;BME280;45241;49.768;8.636;2023-08-20T14:23:55;100544.16;;;38.30;44.68
59435;BME280;45241;49.768;8.636;2023-08-20T14:26:20;100545.31;;;38.91;45.16
59435;BME280;45241;49.768;8.636;2023-08-20T14:28:46;100542.16;;;38.96;43.94
59435;BME280;45241;49.768;8.636;2023-08-20T14:31:11;100546.25;;;40.15;43.01
59435;BME280;45241;49.768;8.636;2023-08-20T14:33:37;100540.72;;;38.18;44.08
59435;BME280;45241;49.768;8.636;2023-08-20T14:36:02;100533.25;;;38.45;44.45
59435;BME280;45241;49.768;8.636;2023-08-20T14:38:29;100546.97;;;38.96;44.49
59435;BME280;45241;49.768;8.636;2023-08-20T14:40:59;100538.50;;;38.69;43.70
59435;BME280;45241;49.768;8.636;2023-08-20T14:43:24;100542.03;;;41.10;44.09
59435;BME280;45241;49.768;8.636;2023-08-20T14:45:49;100539.91;;;41.03;40.69
59435;BME280;45241;49.768;8.636;2023-08-20T14:48:15;100539.16;;;39.61;42.53
59435;BME280;45241;49.768;8.636;2023-08-20T14:50:40;100531.75;;;40.06;42.77
59435;BME280;45241;49.768;8.636;2023-08-20T14:54:22;100542.56;;;40.41;41.37
59435;BME280;45241;49.768;8.636;2023-08-20T14:56:47;100538.66;;;42.60;41.00
59435;BME280;45241;49.768;8.636;2023-08-20T14:59:12;100539.44;;;42.36;39.39
59435;BME280;45241;49.768;8.636;2023-08-20T15:01:38;100535.41;;;40.47;40.84
59435;BME280;45241;49.768;8.636;2023-08-20T15:04:03;100536.03;;;41.18;43.66
59435;BME280;45241;49.768;8.636;2023-08-20T15:06:29;100530.13;;;42.25;38.60
59435;BME280;45241;49.768;8.636;2023-08-20T15:08:54;100532.06;;;43.77;41.12
59435;BME280;45241;49.768;8.636;2023-08-20T15:11:20;100530.09;;;43.71;38.15
59435;BME280;45241;49.768;8.636;2023-08-20T15:13:45;100522.84;;;43.70;41.03
59435;BME280;45241;49.768;8.636;2023-08-20T15:16:10;100527.78;;;42.77;39.26
59435;BME280;45241;49.768;8.636;2023-08-20T15:18:35;100520.13;;;42.74;36.77
59435;BME280;45241;49.768;8.636;2023-08-20T15:21:01;100522.06;;;42.20;37.20
59435;BME280;45241;49.768;8.636;2023-08-20T15:23:27;100518.13;;;43.10;36.00
59435;BME280;45241;49.768;8.636;2023-08-20T15:25:54;100527.78;;;42.70;36.46
59435;BME280;45241;49.768;8.636;2023-08-20T15:28:21;100523.84;;;41.59;37.36
59435;BME280;45241;49.768;8.636;2023-08-20T15:30:48;100518.53;;;42.41;37.90
59435;BME280;45241;49.768;8.636;2023-08-20T15:33:13;100516.91;;;43.21;36.53
59435;BME280;45241;49.768;8.636;2023-08-20T15:36:11;100518.34;;;43.79;35.44
59435;BME280;45241;49.768;8.636;2023-08-20T15:38:36;100516.75;;;44.52;36.13
59435;BME280;45241;49.768;8.636;2023-08-20T15:41:02;100520.53;;;42.69;36.19
59435;BME280;45241;49.768;8.636;2023-08-20T15:43:27;100515.91;;;43.85;36.40
59435;BME280;45241;49.768;8.636;2023-08-20T15:45:52;100518.72;;;44.55;38.09
59435;BME280;45241;49.768;8.636;2023-08-20T15:48:18;100513.97;;;43.68;35.95
59435;BME280;45241;49.768;8.636;2023-08-20T15:50:43;100516.50;;;42.62;36.67
59435;BME280;45241;49.768;8.636;2023-08-20T15:53:08;100513.28;;;43.32;36.43
59435;BME280;45241;49.768;8.636;2023-08-20T15:55:34;100513.28;;;43.17;35.46
59435;BME280;45241;49.768;8.636;2023-08-20T15:57:59;100514.81;;;42.15;37.23
59435;BME280;45241;49.768;8.636;2023-08-20T16:00:24;100511.97;;;41.21;37.53
59435;BME280;45241;49.768;8.636;2023-08-20T16:02:50;100508.38;;;42.22;38.31
59435;BME280;45241;49.768;8.636;2023-08-20T16:05:15;100517.69;;;41.42;38.07
59435;BME280;45241;49.768;8.636;2023-08-20T16:07:42;100506.09;;;42.77;39.57
59435;BME280;45241;49.768;8.636;2023-08-20T16:10:08;100508.00;;;42.27;37.02
59435;BME280;45241;49.768;8.636;2023-08-20T16:12:34;100516.50;;;42.41;38.90
59435;BME280;45241;49.768;8.636;2023-08-20T16:15:00;100507.25;;;42.44;37.91
59435;BME280;45241;49.768;8.636;2023-08-20T16:17:25;100503.09;;;44.40;38.09
59435;BME280;45241;49.768;8.636;2023-08-20T16:19:51;100503.00;;;44.54;39.74
59435;BME280;45241;49.768;8.636;2023-08-20T16:22:16;100500.78;;;43.26;35.13
59435;BME280;45241;49.768;8.636;2023-08-20T16:24:41;100504.47;;;44.69;35.59
59435;BME280;45241;49.768;8.636;2023-08-20T16:27:07;100495.81;;;44.42;36.09
59435;BME280;45241;49.768;8.636;2023-08-20T16:29:32;100496.13;;;44.55;35.39
59435;BME280;45241;49.768;8.636;2023-08-20T16:31:58;100500.69;;;45.31;38.06
59435;BME280;45241;49.768;8.636;2023-08-20T16:34:23;100507.75;;;44.64;34.48
59435;BME280;45241;49.768;8.636;2023-08-20T16:36:51;100500.16;;;45.74;33.80
59435;BME280;45241;49.768;8.636;2023-08-20T16:39:17;100509.56;;;45.98;35.08
59435;BME280;45241;49.768;8.636;2023-08-20T16:41:42;100511.88;;;46.60;33.76
59435;BME280;45241;49.768;8.636;2023-08-20T16:44:07;100503.03;;;46.04;36.42
59435;BME280;45241;49.768;8.636;2023-08-20T16:46:34;100496.72;;;45.25;36.83
59435;BME280;45241;49.768;8.636;2023-08-20T16:48:59;100507.34;;;45.82;35.95
59435;BME280;45241;49.768;8.636;2023-08-20T16:51:28;100502.84;;;45.54;35.55
59435;BME280;45241;49.768;8.636;2023-08-20T16:53:54;100504.84;;;45.88;34.14
59435;BME280;45241;49.768;8.636;2023-08-20T16:56:19;100507.13;;;46.00;34.28
59435;BME280;45241;49.768;8.636;2023-08-20T16:58:45;100504.13;;;45.12;36.17
59435;BME280;45241;49.768;8.636;2023-08-20T17:01:10;100505.81;;;43.88;39.18
59435;BME280;45241;49.768;8.636;2023-08-20T17:03:36;100496.38;;;42.75;39.10
59435;BME280;45241;49.768;8.636;2023-08-20T17:06:02;100505.25;;;42.52;37.72
59435;BME280;45241;49.768;8.636;2023-08-20T17:08:28;100500.38;;;42.38;39.20
59435;BME280;45241;49.768;8.636;2023-08-20T17:10:54;100498.06;;;41.49;42.77
59435;BME280;45241;49.768;8.636;2023-08-20T17:13:19;100498.59;;;41.07;42.75
